Fremont, OH

6:33 PM EST on March 03, 2015 (GMT -0500)
Riley Township @ Polter Berry Farm | Change Station
CLOSE
Current Station
Personal Weather Station
Location: Fremont, OH
Elevation: 600 ft
Nearby Weather Stations

Elev 600 ft 41.38 °N, 83.04 °W | Updated 3 minutes ago

Overcast
Overcast
40.1 °F
Feels Like 32 °F
N
15.0
Wind Variable Wind from SSW
Gusts 15.0 mph

Today
High -- | Low -- °F
--% Chance of Precip.
Yesterday
High -- | Low -- °F
Precip. -- in
7:04 AM 6:25 PM
Waxing Gibbous, 97% visible
Pressure 29.61 in
Visibility 10.0 miles
Clouds Overcast 1000 ft
Windchill 32 °F
Dew Point 38 °F
Humidity 93%
Rainfall 0.00 in
Snow Depth Not available.
UV 0 out of 12
Pollen .40 out of 12
Air Quality Not available.
Flu Activity Not available.
METAR KPCW 032312Z AUTO 24020KT 10SM OVC010 04/03 A2961 RMK AO2 CIG 009V012 PK

More Conditions Fewer Conditions

Pressure 29.61 in
Visibility 10.0 miles
Clouds Overcast 1000 ft
Windchill 32 °F
Dew Point 38 °F
Humidity 93%
Rainfall 0.00 in
Snow Depth Not available.
UV 0 out of 12
Pollen .40 out of 12
Air Quality Not available.
Flu Activity Not available.
METAR KPCW 032312Z AUTO 24020KT 10SM OVC010 04/03 A2961 RMK AO2 CIG 009V012 PK

More Conditions Fewer Conditions

10-Day Weather Forecast

Almanac

Astronomy

Mar. 03, 2015 Rise Set
Actual Time
Civil Twilight
Nautical Twilight
Astronomical Twilight
Moon
Length of Visible Light
Length of Day
Tomorrow will be .
, % of the Moon is Illuminated

Today's Extremes

State Highs State Lows

Community

WunderPhotos

Upload Photos

1,802,305 photos uploaded!

WunderBlogs® & News

Nearby

Air Quality

  Air Quality AQ Index Pollutant
Not available.

Snow Depth

Station Depth Elevation

Earthquake Activity

City Distance Mag. Time & Date
Minimum magnitude displayed is 2.5.

Coastal Water Temperatures

Place Temperature

Nearby Weather Stations